sensor_id;sensor_type;location;lat;lon;timestamp;temperature;humidity
70246;SHT30;57637;49.272;8.590;2022-09-14T00:01:24;19.39;84.15
70246;SHT30;57637;49.272;8.590;2022-09-14T00:03:55;19.22;84.89
70246;SHT30;57637;49.272;8.590;2022-09-14T00:06:23;19.08;85.43
70246;SHT30;57637;49.272;8.590;2022-09-14T00:08:49;19.01;85.50
70246;SHT30;57637;49.272;8.590;2022-09-14T00:11:16;18.90;85.92
70246;SHT30;57637;49.272;8.590;2022-09-14T00:13:43;18.65;88.41
70246;SHT30;57637;49.272;8.590;2022-09-14T00:16:11;18.41;88.08
70246;SHT30;57637;49.272;8.590;2022-09-14T00:18:38;18.44;88.27
70246;SHT30;57637;49.272;8.590;2022-09-14T00:21:05;18.41;89.15
70246;SHT30;57637;49.272;8.590;2022-09-14T00:23:33;18.23;90.17
70246;SHT30;57637;49.272;8.590;2022-09-14T00:26:03;18.19;90.85
70246;SHT30;57637;49.272;8.590;2022-09-14T00:28:30;18.19;90.93
70246;SHT30;57637;49.272;8.590;2022-09-14T00:30:55;18.17;91.89
70246;SHT30;57637;49.272;8.590;2022-09-14T00:33:21;18.19;92.23
70246;SHT30;57637;49.272;8.590;2022-09-14T00:35:46;18.26;92.37
70246;SHT30;57637;49.272;8.590;2022-09-14T00:38:12;18.26;92.52
70246;SHT30;57637;49.272;8.590;2022-09-14T00:40:37;18.22;92.73
70246;SHT30;57637;49.272;8.590;2022-09-14T00:43:04;18.19;92.82
70246;SHT30;57637;49.272;8.590;2022-09-14T00:45:36;18.20;92.88
70246;SHT30;57637;49.272;8.590;2022-09-14T00:48:02;18.12;93.11
70246;SHT30;57637;49.272;8.590;2022-09-14T00:50:27;18.06;93.54
70246;SHT30;57637;49.272;8.590;2022-09-14T00:52:53;18.05;93.90
70246;SHT30;57637;49.272;8.590;2022-09-14T00:55:21;17.96;94.45
70246;SHT30;57637;49.272;8.590;2022-09-14T00:57:49;17.90;94.76
70246;SHT30;57637;49.272;8.590;2022-09-14T01:00:19;17.88;94.85
70246;SHT30;57637;49.272;8.590;2022-09-14T01:02:47;17.90;94.84
70246;SHT30;57637;49.272;8.590;2022-09-14T01:05:12;17.90;95.01
70246;SHT30;57637;49.272;8.590;2022-09-14T01:15:46;17.89;95.42
70246;SHT30;57637;49.272;8.590;2022-09-14T01:18:23;17.90;95.42
70246;SHT30;57637;49.272;8.590;2022-09-14T01:20:58;17.88;95.60
70246;SHT30;57637;49.272;8.590;2022-09-14T01:23:38;17.81;95.65
70246;SHT30;57637;49.272;8.590;2022-09-14T01:29:17;17.76;95.90
70246;SHT30;57637;49.272;8.590;2022-09-14T01:31:55;17.79;95.97
70246;SHT30;57637;49.272;8.590;2022-09-14T01:37:17;17.72;95.89
70246;SHT30;57637;49.272;8.590;2022-09-14T01:39:47;17.78;96.02
70246;SHT30;57637;49.272;8.590;2022-09-14T01:42:17;17.72;96.08
70246;SHT30;57637;49.272;8.590;2022-09-14T01:44:47;17.76;96.12
70246;SHT30;57637;49.272;8.590;2022-09-14T01:49:52;17.85;95.94
70246;SHT30;57637;49.272;8.590;2022-09-14T01:52:23;17.88;95.89
70246;SHT30;57637;49.272;8.590;2022-09-14T01:54:56;17.89;95.71
70246;SHT30;57637;49.272;8.590;2022-09-14T01:57:28;17.89;95.59
70246;SHT30;57637;49.272;8.590;2022-09-14T02:00:00;17.92;95.80
70246;SHT30;57637;49.272;8.590;2022-09-14T02:02:37;17.95;95.73
70246;SHT30;57637;49.272;8.590;2022-09-14T02:07:30;17.97;95.63
70246;SHT30;57637;49.272;8.590;2022-09-14T02:09:56;17.97;95.45
70246;SHT30;57637;49.272;8.590;2022-09-14T02:12:23;18.02;95.35
70246;SHT30;57637;49.272;8.590;2022-09-14T02:14:49;17.99;95.40
70246;SHT30;57637;49.272;8.590;2022-09-14T02:17:17;17.96;95.36
70246;SHT30;57637;49.272;8.590;2022-09-14T02:19:48;17.96;95.46
70246;SHT30;57637;49.272;8.590;2022-09-14T02:22:23;17.96;95.60
70246;SHT30;57637;49.272;8.590;2022-09-14T02:24:50;17.92;95.49
70246;SHT30;57637;49.272;8.590;2022-09-14T02:27:16;17.86;95.53
70246;SHT30;57637;49.272;8.590;2022-09-14T02:29:41;17.86;95.81
70246;SHT30;57637;49.272;8.590;2022-09-14T02:32:29;17.78;95.98
70246;SHT30;57637;49.272;8.590;2022-09-14T02:40:50;17.75;96.07
70246;SHT30;57637;49.272;8.590;2022-09-14T02:43:25;17.65;96.36
70246;SHT30;57637;49.272;8.590;2022-09-14T02:51:44;17.61;96.67
70246;SHT30;57637;49.272;8.590;2022-09-14T02:54:14;17.65;96.74
70246;SHT30;57637;49.272;8.590;2022-09-14T02:56:45;17.62;96.71
70246;SHT30;57637;49.272;8.590;2022-09-14T02:59:11;17.61;96.72
70246;SHT30;57637;49.272;8.590;2022-09-14T03:01:36;17.59;96.65
70246;SHT30;57637;49.272;8.590;2022-09-14T03:04:02;17.59;96.68
70246;SHT30;57637;49.272;8.590;2022-09-14T03:06:27;17.61;96.78
70246;SHT30;57637;49.272;8.590;2022-09-14T03:08:53;17.65;96.89
70246;SHT30;57637;49.272;8.590;2022-09-14T03:11:18;17.59;96.75
70246;SHT30;57637;49.272;8.590;2022-09-14T03:13:43;17.62;96.85
70246;SHT30;57637;49.272;8.590;2022-09-14T03:16:13;17.61;96.70
70246;SHT30;57637;49.272;8.590;2022-09-14T03:18:40;17.59;96.90
70246;SHT30;57637;49.272;8.590;2022-09-14T03:21:10;17.56;96.89
70246;SHT30;57637;49.272;8.590;2022-09-14T03:23:38;17.59;96.95
70246;SHT30;57637;49.272;8.590;2022-09-14T03:26:19;17.52;97.16
70246;SHT30;57637;49.272;8.590;2022-09-14T03:28:50;17.56;97.17
70246;SHT30;57637;49.272;8.590;2022-09-14T03:31:17;17.48;96.89
70246;SHT30;57637;49.272;8.590;2022-09-14T03:33:42;17.51;96.97
70246;SHT30;57637;49.272;8.590;2022-09-14T03:36:09;17.55;96.99
70246;SHT30;57637;49.272;8.590;2022-09-14T03:38:35;17.58;96.93
70246;SHT30;57637;49.272;8.590;2022-09-14T03:41:00;17.59;96.82
70246;SHT30;57637;49.272;8.590;2022-09-14T03:43:25;17.61;96.75
70246;SHT30;57637;49.272;8.590;2022-09-14T03:45:51;17.61;96.75
70246;SHT30;57637;49.272;8.590;2022-09-14T03:48:17;17.59;96.63
70246;SHT30;57637;49.272;8.590;2022-09-14T03:50:42;17.59;96.64
70246;SHT30;57637;49.272;8.590;2022-09-14T03:53:08;17.62;96.78
70246;SHT30;57637;49.272;8.590;2022-09-14T03:55:33;17.64;96.60
70246;SHT30;57637;49.272;8.590;2022-09-14T03:57:58;17.59;96.54
70246;SHT30;57637;49.272;8.590;2022-09-14T04:00:24;17.58;96.64
70246;SHT30;57637;49.272;8.590;2022-09-14T04:02:49;17.61;96.65
70246;SHT30;57637;49.272;8.590;2022-09-14T04:05:14;17.61;96.59
70246;SHT30;57637;49.272;8.590;2022-09-14T04:07:40;17.62;96.57
70246;SHT30;57637;49.272;8.590;2022-09-14T04:10:06;17.59;96.48
70246;SHT30;57637;49.272;8.590;2022-09-14T04:12:35;17.55;96.71
70246;SHT30;57637;49.272;8.590;2022-09-14T04:15:02;17.59;96.79
70246;SHT30;57637;49.272;8.590;2022-09-14T04:17:31;17.61;96.82
70246;SHT30;57637;49.272;8.590;2022-09-14T04:19:57;17.64;96.62
70246;SHT30;57637;49.272;8.590;2022-09-14T04:22:22;17.66;96.69
70246;SHT30;57637;49.272;8.590;2022-09-14T04:24:48;17.65;96.78
70246;SHT30;57637;49.272;8.590;2022-09-14T04:27:13;17.68;96.93
70246;SHT30;57637;49.272;8.590;2022-09-14T04:29:39;17.65;96.59
70246;SHT30;57637;49.272;8.590;2022-09-14T04:32:04;17.64;96.87
70246;SHT30;57637;49.272;8.590;2022-09-14T04:34:30;17.65;96.72
70246;SHT30;57637;49.272;8.590;2022-09-14T04:36:55;17.64;96.78
70246;SHT30;57637;49.272;8.590;2022-09-14T04:39:20;17.65;96.68
70246;SHT30;57637;49.272;8.590;2022-09-14T04:41:46;17.65;96.73
70246;SHT30;57637;49.272;8.590;2022-09-14T04:44:12;17.64;96.71
70246;SHT30;57637;49.272;8.590;2022-09-14T04:46:38;17.61;96.61
70246;SHT30;57637;49.272;8.590;2022-09-14T04:49:05;17.52;96.22
70246;SHT30;57637;49.272;8.590;2022-09-14T04:51:31;17.52;96.60
70246;SHT30;57637;49.272;8.590;2022-09-14T04:53:58;17.58;96.81
70246;SHT30;57637;49.272;8.590;2022-09-14T04:56:26;17.66;96.57
70246;SHT30;57637;49.272;8.590;2022-09-14T04:58:53;17.68;96.63
70246;SHT30;57637;49.272;8.590;2022-09-14T05:01:22;17.71;96.44
70246;SHT30;57637;49.272;8.590;2022-09-14T05:03:52;17.71;96.12
70246;SHT30;57637;49.272;8.590;2022-09-14T05:06:22;17.72;96.04
70246;SHT30;57637;49.272;8.590;2022-09-14T05:08:49;17.75;96.07
70246;SHT30;57637;49.272;8.590;2022-09-14T05:11:17;17.66;96.01
70246;SHT30;57637;49.272;8.590;2022-09-14T05:13:44;17.66;96.46
70246;SHT30;57637;49.272;8.590;2022-09-14T05:16:13;17.72;96.07
70246;SHT30;57637;49.272;8.590;2022-09-14T05:18:43;17.79;96.23
70246;SHT30;57637;49.272;8.590;2022-09-14T05:21:10;17.59;96.05
70246;SHT30;57637;49.272;8.590;2022-09-14T05:23:38;17.71;96.32
70246;SHT30;57637;49.272;8.590;2022-09-14T05:26:04;17.72;96.23
70246;SHT30;57637;49.272;8.590;2022-09-14T05:28:30;17.76;96.15
70246;SHT30;57637;49.272;8.590;2022-09-14T05:30:56;17.75;96.08
70246;SHT30;57637;49.272;8.590;2022-09-14T05:33:22;17.74;96.14
70246;SHT30;57637;49.272;8.590;2022-09-14T05:35:47;17.78;96.10
70246;SHT30;57637;49.272;8.590;2022-09-14T05:38:14;17.78;96.07
70246;SHT30;57637;49.272;8.590;2022-09-14T05:40:39;17.83;96.08
70246;SHT30;57637;49.272;8.590;2022-09-14T05:43:05;17.75;95.76
70246;SHT30;57637;49.272;8.590;2022-09-14T05:45:30;17.75;95.98
70246;SHT30;57637;49.272;8.590;2022-09-14T05:47:59;17.75;96.18
70246;SHT30;57637;49.272;8.590;2022-09-14T05:50:26;17.78;96.35
70246;SHT30;57637;49.272;8.590;2022-09-14T05:52:51;17.78;96.17
70246;SHT30;57637;49.272;8.590;2022-09-14T05:55:16;17.79;95.99
70246;SHT30;57637;49.272;8.590;2022-09-14T05:57:42;17.76;95.93
70246;SHT30;57637;49.272;8.590;2022-09-14T06:00:07;17.79;95.86
70246;SHT30;57637;49.272;8.590;2022-09-14T06:02:33;17.82;95.98
70246;SHT30;57637;49.272;8.590;2022-09-14T06:04:59;17.83;95.93
70246;SHT30;57637;49.272;8.590;2022-09-14T06:07:24;17.83;95.97
70246;SHT30;57637;49.272;8.590;2022-09-14T06:09:49;17.86;95.69
70246;SHT30;57637;49.272;8.590;2022-09-14T06:12:15;17.83;95.89
70246;SHT30;57637;49.272;8.590;2022-09-14T06:14:40;17.86;95.91
70246;SHT30;57637;49.272;8.590;2022-09-14T06:17:05;17.89;95.89
70246;SHT30;57637;49.272;8.590;2022-09-14T06:19:31;17.89;95.97
70246;SHT30;57637;49.272;8.590;2022-09-14T06:21:56;17.90;95.73
70246;SHT30;57637;49.272;8.590;2022-09-14T06:24:21;17.92;95.80
70246;SHT30;57637;49.272;8.590;2022-09-14T06:26:47;17.95;95.83
70246;SHT30;57637;49.272;8.590;2022-09-14T06:29:12;17.96;96.05
70246;SHT30;57637;49.272;8.590;2022-09-14T06:31:38;17.96;95.90
70246;SHT30;57637;49.272;8.590;2022-09-14T06:34:04;18.02;95.97
70246;SHT30;57637;49.272;8.590;2022-09-14T06:36:29;18.05;95.95
70246;SHT30;57637;49.272;8.590;2022-09-14T06:38:55;18.12;95.72
70246;SHT30;57637;49.272;8.590;2022-09-14T06:41:22;18.12;95.79
70246;SHT30;57637;49.272;8.590;2022-09-14T06:43:53;18.13;95.63
70246;SHT30;57637;49.272;8.590;2022-09-14T06:46:22;18.17;95.59
70246;SHT30;57637;49.272;8.590;2022-09-14T06:48:54;18.22;95.60
70246;SHT30;57637;49.272;8.590;2022-09-14T06:51:32;18.26;95.39
70246;SHT30;57637;49.272;8.590;2022-09-14T06:53:59;18.32;95.22
70246;SHT30;57637;49.272;8.590;2022-09-14T06:56:26;18.37;94.95
70246;SHT30;57637;49.272;8.590;2022-09-14T06:58:53;18.51;94.87
70246;SHT30;57637;49.272;8.590;2022-09-14T07:01:19;18.57;94.38
70246;SHT30;57637;49.272;8.590;2022-09-14T07:03:45;18.61;94.21
70246;SHT30;57637;49.272;8.590;2022-09-14T07:06:15;18.65;94.02
70246;SHT30;57637;49.272;8.590;2022-09-14T07:08:42;18.64;94.08
70246;SHT30;57637;49.272;8.590;2022-09-14T07:11:09;18.54;93.52
70246;SHT30;57637;49.272;8.590;2022-09-14T07:13:35;18.56;94.07
70246;SHT30;57637;49.272;8.590;2022-09-14T07:16:01;18.61;94.25
70246;SHT30;57637;49.272;8.590;2022-09-14T07:18:27;18.64;93.79
70246;SHT30;57637;49.272;8.590;2022-09-14T07:23:28;18.80;93.68
70246;SHT30;57637;49.272;8.590;2022-09-14T07:28:46;19.08;92.75
70246;SHT30;57637;49.272;8.590;2022-09-14T07:31:23;19.25;92.34
70246;SHT30;57637;49.272;8.590;2022-09-14T07:34:10;19.38;92.08
70246;SHT30;57637;49.272;8.590;2022-09-14T07:36:36;19.45;91.58
70246;SHT30;57637;49.272;8.590;2022-09-14T07:39:03;19.62;91.25
70246;SHT30;57637;49.272;8.590;2022-09-14T07:41:29;19.72;90.82
70246;SHT30;57637;49.272;8.590;2022-09-14T07:43:57;19.84;90.10
70246;SHT30;57637;49.272;8.590;2022-09-14T07:46:24;19.98;89.97
70246;SHT30;57637;49.272;8.590;2022-09-14T07:48:57;20.06;89.49
70246;SHT30;57637;49.272;8.590;2022-09-14T07:51:24;20.18;89.24
70246;SHT30;57637;49.272;8.590;2022-09-14T07:53:52;20.40;89.16
70246;SHT30;57637;49.272;8.590;2022-09-14T07:56:17;20.54;88.33
70246;SHT30;57637;49.272;8.590;2022-09-14T07:58:43;20.61;87.49
70246;SHT30;57637;49.272;8.590;2022-09-14T08:01:10;20.98;87.43
70246;SHT30;57637;49.272;8.590;2022-09-14T08:03:38;21.36;86.54
70246;SHT30;57637;49.272;8.590;2022-09-14T08:06:05;21.40;85.60
70246;SHT30;57637;49.272;8.590;2022-09-14T08:08:42;21.39;84.80
70246;SHT30;57637;49.272;8.590;2022-09-14T08:11:10;21.56;84.48
70246;SHT30;57637;49.272;8.590;2022-09-14T08:13:38;21.88;84.47
70246;SHT30;57637;49.272;8.590;2022-09-14T08:16:05;21.84;83.71
70246;SHT30;57637;49.272;8.590;2022-09-14T08:18:30;22.15;84.74
70246;SHT30;57637;49.272;8.590;2022-09-14T08:21:02;22.31;83.03
70246;SHT30;57637;49.272;8.590;2022-09-14T08:23:32;22.30;83.49
70246;SHT30;57637;49.272;8.590;2022-09-14T08:26:06;22.28;83.32
70246;SHT30;57637;49.272;8.590;2022-09-14T08:28:39;22.37;83.25
70246;SHT30;57637;49.272;8.590;2022-09-14T08:31:15;22.45;83.28
70246;SHT30;57637;49.272;8.590;2022-09-14T08:33:46;22.47;83.98
70246;SHT30;57637;49.272;8.590;2022-09-14T08:36:15;22.48;83.33
70246;SHT30;57637;49.272;8.590;2022-09-14T08:38:41;22.52;83.99
70246;SHT30;57637;49.272;8.590;2022-09-14T08:43:52;22.71;83.50
70246;SHT30;57637;49.272;8.590;2022-09-14T08:48:58;23.10;82.15
70246;SHT30;57637;49.272;8.590;2022-09-14T08:51:26;23.22;82.34
70246;SHT30;57637;49.272;8.590;2022-09-14T08:53:52;23.07;82.07
70246;SHT30;57637;49.272;8.590;2022-09-14T08:56:40;23.09;82.04
70246;SHT30;57637;49.272;8.590;2022-09-14T08:59:15;22.93;82.42
70246;SHT30;57637;49.272;8.590;2022-09-14T09:09:43;22.99;82.77
70246;SHT30;57637;49.272;8.590;2022-09-14T09:12:14;23.16;82.54
70246;SHT30;57637;49.272;8.590;2022-09-14T09:14:43;23.33;82.67
70246;SHT30;57637;49.272;8.590;2022-09-14T09:20:10;24.19;80.36
70246;SHT30;57637;49.272;8.590;2022-09-14T09:22:43;24.28;78.52
70246;SHT30;57637;49.272;8.590;2022-09-14T09:25:19;24.25;79.66
70246;SHT30;57637;49.272;8.590;2022-09-14T09:27:53;24.40;79.29
70246;SHT30;57637;49.272;8.590;2022-09-14T09:30:23;24.77;78.17
70246;SHT30;57637;49.272;8.590;2022-09-14T09:32:48;25.03;76.78
70246;SHT30;57637;49.272;8.590;2022-09-14T09:35:16;25.14;76.41
70246;SHT30;57637;49.272;8.590;2022-09-14T09:37:45;24.88;76.76
70246;SHT30;57637;49.272;8.590;2022-09-14T09:40:24;25.07;77.07
70246;SHT30;57637;49.272;8.590;2022-09-14T09:48:31;24.96;77.62
70246;SHT30;57637;49.272;8.590;2022-09-14T09:53:36;24.93;77.76
70246;SHT30;57637;49.272;8.590;2022-09-14T09:56:36;25.00;77.34
70246;SHT30;57637;49.272;8.590;2022-09-14T10:02:12;25.18;77.47
70246;SHT30;57637;49.272;8.590;2022-09-14T10:04:56;25.58;76.06
70246;SHT30;57637;49.272;8.590;2022-09-14T10:07:35;25.85;75.05
70246;SHT30;57637;49.272;8.590;2022-09-14T10:10:11;26.02;75.49
70246;SHT30;57637;49.272;8.590;2022-09-14T10:12:38;25.89;74.24
70246;SHT30;57637;49.272;8.590;2022-09-14T10:15:15;26.05;74.52
70246;SHT30;57637;49.272;8.590;2022-09-14T10:20:25;26.49;72.34
70246;SHT30;57637;49.272;8.590;2022-09-14T10:22:51;26.47;72.82
70246;SHT30;57637;49.272;8.590;2022-09-14T10:27:46;26.46;73.53
70246;SHT30;57637;49.272;8.590;2022-09-14T10:32:57;26.77;72.63
70246;SHT30;57637;49.272;8.590;2022-09-14T10:35:26;26.57;71.94
70246;SHT30;57637;49.272;8.590;2022-09-14T10:38:26;26.56;72.70
70246;SHT30;57637;49.272;8.590;2022-09-14T10:44:16;26.54;72.52
70246;SHT30;57637;49.272;8.590;2022-09-14T10:57:54;26.65;70.80
70246;SHT30;57637;49.272;8.590;2022-09-14T11:08:50;27.96;68.77
70246;SHT30;57637;49.272;8.590;2022-09-14T11:11:59;28.12;67.78
70246;SHT30;57637;49.272;8.590;2022-09-14T11:18:16;28.18;67.41
70246;SHT30;57637;49.272;8.590;2022-09-14T11:26:10;29.05;65.52
70246;SHT30;57637;49.272;8.590;2022-09-14T11:34:47;28.71;63.62
70246;SHT30;57637;49.272;8.590;2022-09-14T11:37:23;28.36;64.74
70246;SHT30;57637;49.272;8.590;2022-09-14T11:40:14;28.30;65.59
70246;SHT30;57637;49.272;8.590;2022-09-14T11:52:11;27.14;67.95
70246;SHT30;57637;49.272;8.590;2022-09-14T11:54:57;26.77;69.05
70246;SHT30;57637;49.272;8.590;2022-09-14T11:57:28;26.59;69.73
70246;SHT30;57637;49.272;8.590;2022-09-14T12:00:03;26.32;71.05
70246;SHT30;57637;49.272;8.590;2022-09-14T12:03:18;26.19;71.05
70246;SHT30;57637;49.272;8.590;2022-09-14T12:05:46;26.12;71.45
70246;SHT30;57637;49.272;8.590;2022-09-14T12:11:02;25.91;71.75
70246;SHT30;57637;49.272;8.590;2022-09-14T12:13:34;25.79;72.00
70246;SHT30;57637;49.272;8.590;2022-09-14T12:16:07;25.77;71.24
70246;SHT30;57637;49.272;8.590;2022-09-14T12:18:37;25.40;72.39
70246;SHT30;57637;49.272;8.590;2022-09-14T12:21:05;25.38;72.81
70246;SHT30;57637;49.272;8.590;2022-09-14T12:23:42;25.21;73.78
70246;SHT30;57637;49.272;8.590;2022-09-14T12:40:54;24.56;75.33
70246;SHT30;57637;49.272;8.590;2022-09-14T12:56:39;23.78;78.61
70246;SHT30;57637;49.272;8.590;2022-09-14T13:00:00;23.73;79.67
70246;SHT30;57637;49.272;8.590;2022-09-14T13:05:23;23.44;80.85
70246;SHT30;57637;49.272;8.590;2022-09-14T13:07:51;23.36;81.45
70246;SHT30;57637;49.272;8.590;2022-09-14T13:10:19;23.28;81.99
70246;SHT30;57637;49.272;8.590;2022-09-14T13:12:49;23.16;82.65
70246;SHT30;57637;49.272;8.590;2022-09-14T13:20:39;22.28;82.82
70246;SHT30;57637;49.272;8.590;2022-09-14T13:23:17;21.96;83.13
70246;SHT30;57637;49.272;8.590;2022-09-14T13:25:54;21.64;83.90
70246;SHT30;57637;49.272;8.590;2022-09-14T13:28:20;21.40;84.39
70246;SHT30;57637;49.272;8.590;2022-09-14T13:30:53;21.36;84.98
70246;SHT30;57637;49.272;8.590;2022-09-14T13:33:20;21.22;85.36
70246;SHT30;57637;49.272;8.590;2022-09-14T13:35:49;21.16;85.87
70246;SHT30;57637;49.272;8.590;2022-09-14T13:38:18;21.08;86.36
70246;SHT30;57637;49.272;8.590;2022-09-14T13:40:50;20.99;86.54
70246;SHT30;57637;49.272;8.590;2022-09-14T13:43:19;20.98;86.68
70246;SHT30;57637;49.272;8.590;2022-09-14T13:45:47;20.95;87.03
70246;SHT30;57637;49.272;8.590;2022-09-14T13:48:14;20.94;87.03
70246;SHT30;57637;49.272;8.590;2022-09-14T13:50:45;20.86;87.73
70246;SHT30;57637;49.272;8.590;2022-09-14T14:01:31;20.81;88.67
70246;SHT30;57637;49.272;8.590;2022-09-14T14:04:29;20.72;88.87
70246;SHT30;57637;49.272;8.590;2022-09-14T14:07:02;20.72;89.28
70246;SHT30;57637;49.272;8.590;2022-09-14T14:09:43;20.71;89.23
70246;SHT30;57637;49.272;8.590;2022-09-14T14:12:10;20.69;89.57
70246;SHT30;57637;49.272;8.590;2022-09-14T14:17:38;20.63;89.86
70246;SHT30;57637;49.272;8.590;2022-09-14T14:25:34;20.55;90.26
70246;SHT30;57637;49.272;8.590;2022-09-14T14:28:03;20.48;90.59
70246;SHT30;57637;49.272;8.590;2022-09-14T14:30:30;20.49;90.90
70246;SHT30;57637;49.272;8.590;2022-09-14T14:32:59;20.51;90.58
70246;SHT30;57637;49.272;8.590;2022-09-14T14:35:29;20.47;90.41
70246;SHT30;57637;49.272;8.590;2022-09-14T14:37:56;20.44;90.38
70246;SHT30;57637;49.272;8.590;2022-09-14T14:40:23;20.44;90.39
70246;SHT30;57637;49.272;8.590;2022-09-14T14:42:53;20.38;90.38
70246;SHT30;57637;49.272;8.590;2022-09-14T14:45:23;20.31;90.51
70246;SHT30;57637;49.272;8.590;2022-09-14T14:47:51;20.34;90.72
70246;SHT30;57637;49.272;8.590;2022-09-14T14:50:23;20.30;90.36
70246;SHT30;57637;49.272;8.590;2022-09-14T14:52:53;20.28;90.32
70246;SHT30;57637;49.272;8.590;2022-09-14T14:55:19;20.30;90.29
70246;SHT30;57637;49.272;8.590;2022-09-14T14:57:46;20.24;90.25
70246;SHT30;57637;49.272;8.590;2022-09-14T15:00:14;20.18;90.35
70246;SHT30;57637;49.272;8.590;2022-09-14T15:02:41;20.20;90.60
70246;SHT30;57637;49.272;8.590;2022-09-14T15:05:22;20.16;90.48
70246;SHT30;57637;49.272;8.590;2022-09-14T15:07:49;20.18;90.46
70246;SHT30;57637;49.272;8.590;2022-09-14T15:10:16;20.20;90.65
70246;SHT30;57637;49.272;8.590;2022-09-14T15:12:42;20.24;90.76
70246;SHT30;57637;49.272;8.590;2022-09-14T15:15:12;20.23;90.91
70246;SHT30;57637;49.272;8.590;2022-09-14T15:17:39;20.23;91.04
70246;SHT30;57637;49.272;8.590;2022-09-14T15:20:05;20.23;91.08
70246;SHT30;57637;49.272;8.590;2022-09-14T15:22:31;20.23;91.16
70246;SHT30;57637;49.272;8.590;2022-09-14T15:24:57;20.27;91.18
70246;SHT30;57637;49.272;8.590;2022-09-14T15:27:22;20.28;91.01
70246;SHT30;57637;49.272;8.590;2022-09-14T15:29:47;20.28;91.07
70246;SHT30;57637;49.272;8.590;2022-09-14T15:32:13;20.21;91.14
70246;SHT30;57637;49.272;8.590;2022-09-14T15:34:40;20.20;91.13
70246;SHT30;57637;49.272;8.590;2022-09-14T15:37:05;20.23;91.11
70246;SHT30;57637;49.272;8.590;2022-09-14T15:39:30;20.21;90.96
70246;SHT30;57637;49.272;8.590;2022-09-14T15:41:56;20.17;90.76
70246;SHT30;57637;49.272;8.590;2022-09-14T15:44:23;20.23;90.84
70246;SHT30;57637;49.272;8.590;2022-09-14T15:46:48;20.20;90.65
70246;SHT30;57637;49.272;8.590;2022-09-14T15:49:15;20.21;90.62
70246;SHT30;57637;49.272;8.590;2022-09-14T15:51:43;20.23;90.35
70246;SHT30;57637;49.272;8.590;2022-09-14T15:54:10;20.23;90.19
70246;SHT30;57637;49.272;8.590;2022-09-14T15:56:36;20.25;90.11
70246;SHT30;57637;49.272;8.590;2022-09-14T15:59:02;20.28;90.12
70246;SHT30;57637;49.272;8.590;2022-09-14T16:01:28;20.37;89.99
70246;SHT30;57637;49.272;8.590;2022-09-14T16:03:58;20.41;90.05
70246;SHT30;57637;49.272;8.590;2022-09-14T16:06:31;20.48;89.76
70246;SHT30;57637;49.272;8.590;2022-09-14T16:09:01;20.51;89.41
70246;SHT30;57637;49.272;8.590;2022-09-14T16:11:29;20.57;89.47
70246;SHT30;57637;49.272;8.590;2022-09-14T16:13:55;20.55;89.74
70246;SHT30;57637;49.272;8.590;2022-09-14T16:16:20;20.58;89.67
70246;SHT30;57637;49.272;8.590;2022-09-14T16:18:46;20.58;89.50
70246;SHT30;57637;49.272;8.590;2022-09-14T16:21:35;20.67;89.48
70246;SHT30;57637;49.272;8.590;2022-09-14T16:24:00;20.68;89.35
70246;SHT30;57637;49.272;8.590;2022-09-14T16:26:29;20.75;89.27
70246;SHT30;57637;49.272;8.590;2022-09-14T16:28:56;20.71;89.18
70246;SHT30;57637;49.272;8.590;2022-09-14T16:31:24;20.72;88.85
70246;SHT30;57637;49.272;8.590;2022-09-14T16:33:50;20.68;88.98
70246;SHT30;57637;49.272;8.590;2022-09-14T16:36:29;20.72;89.32
70246;SHT30;57637;49.272;8.590;2022-09-14T16:38:58;20.74;89.13
70246;SHT30;57637;49.272;8.590;2022-09-14T16:41:25;20.79;88.93
70246;SHT30;57637;49.272;8.590;2022-09-14T16:43:54;20.85;89.15
70246;SHT30;57637;49.272;8.590;2022-09-14T16:46:21;20.86;89.04
70246;SHT30;57637;49.272;8.590;2022-09-14T16:48:48;20.88;88.68
70246;SHT30;57637;49.272;8.590;2022-09-14T16:51:14;20.84;88.89
70246;SHT30;57637;49.272;8.590;2022-09-14T16:53:41;20.91;88.95
70246;SHT30;57637;49.272;8.590;2022-09-14T16:56:20;20.88;88.98
70246;SHT30;57637;49.272;8.590;2022-09-14T16:58:48;20.88;88.93
70246;SHT30;57637;49.272;8.590;2022-09-14T17:03:42;20.78;89.03
70246;SHT30;57637;49.272;8.590;2022-09-14T17:06:10;20.71;89.28
70246;SHT30;57637;49.272;8.590;2022-09-14T17:08:40;20.65;89.43
70246;SHT30;57637;49.272;8.590;2022-09-14T17:11:06;20.64;89.67
70246;SHT30;57637;49.272;8.590;2022-09-14T17:13:32;20.58;89.76
70246;SHT30;57637;49.272;8.590;2022-09-14T17:16:05;20.52;89.98
70246;SHT30;57637;49.272;8.590;2022-09-14T17:18:34;20.47;90.17
70246;SHT30;57637;49.272;8.590;2022-09-14T17:21:04;20.41;90.31
70246;SHT30;57637;49.272;8.590;2022-09-14T17:23:32;20.38;90.53
70246;SHT30;57637;49.272;8.590;2022-09-14T17:25:58;20.31;90.52
70246;SHT30;57637;49.272;8.590;2022-09-14T17:28:24;20.27;90.71
70246;SHT30;57637;49.272;8.590;2022-09-14T17:30:51;20.24;90.84
70246;SHT30;57637;49.272;8.590;2022-09-14T17:33:19;20.18;91.14
70246;SHT30;57637;49.272;8.590;2022-09-14T17:35:49;20.12;91.35
70246;SHT30;57637;49.272;8.590;2022-09-14T17:38:16;20.06;91.51
70246;SHT30;57637;49.272;8.590;2022-09-14T17:40:42;20.04;91.52
70246;SHT30;57637;49.272;8.590;2022-09-14T17:43:08;20.00;91.58
70246;SHT30;57637;49.272;8.590;2022-09-14T17:45:34;20.00;91.64
70246;SHT30;57637;49.272;8.590;2022-09-14T17:48:00;19.96;91.64
70246;SHT30;57637;49.272;8.590;2022-09-14T17:50:25;19.94;91.66
70246;SHT30;57637;49.272;8.590;2022-09-14T17:52:51;19.92;91.61
70246;SHT30;57637;49.272;8.590;2022-09-14T17:55:16;19.89;91.64
70246;SHT30;57637;49.272;8.590;2022-09-14T17:57:42;19.84;91.64
70246;SHT30;57637;49.272;8.590;2022-09-14T18:00:07;19.83;91.69
70246;SHT30;57637;49.272;8.590;2022-09-14T18:02:37;19.82;91.65
70246;SHT30;57637;49.272;8.590;2022-09-14T18:05:02;19.80;91.74
70246;SHT30;57637;49.272;8.590;2022-09-14T18:07:28;19.79;91.78
70246;SHT30;57637;49.272;8.590;2022-09-14T18:09:55;19.74;91.80
70246;SHT30;57637;49.272;8.590;2022-09-14T18:12:21;19.73;91.76
70246;SHT30;57637;49.272;8.590;2022-09-14T18:14:47;19.77;91.88
70246;SHT30;57637;49.272;8.590;2022-09-14T18:17:13;19.72;91.79
70246;SHT30;57637;49.272;8.590;2022-09-14T18:19:38;19.73;91.84
70246;SHT30;57637;49.272;8.590;2022-09-14T18:22:04;19.69;91.84
70246;SHT30;57637;49.272;8.590;2022-09-14T18:24:30;19.67;91.85
70246;SHT30;57637;49.272;8.590;2022-09-14T18:26:56;19.65;92.08
70246;SHT30;57637;49.272;8.590;2022-09-14T18:29:21;19.63;92.09
70246;SHT30;57637;49.272;8.590;2022-09-14T18:31:51;19.62;92.19
70246;SHT30;57637;49.272;8.590;2022-09-14T18:34:21;19.62;92.30
70246;SHT30;57637;49.272;8.590;2022-09-14T18:36:49;19.63;92.36
70246;SHT30;57637;49.272;8.590;2022-09-14T18:39:15;19.67;92.26